Glendive, MT (59330)

1:33 PM MDT on September 01, 2015 (GMT -0600)
APRSWXNET | | Change Station
CLOSE
Current Station
Personal Weather Station
Location: Glendive, MT
Elevation: 2208 ft
Nearby Weather Stations

Elev 2208 ft 47.04 °N, 104.80 °W | Updated 59 days ago

Clear
Clear
86 °F
Feels Like 86 °F
N
5
Wind Variable Wind from SSW
Gusts mph

Today
High -- | Low -- °F
--% Chance of Precip.
Yesterday
High -- | Low -- °F
Precip. -- in
6:17 AM 7:39 PM
Waning Gibbous, 87% visible
Pressure 29.80 in
Visibility 10.0 miles
Clouds Clear
Dew Point 46 °F
Humidity 25%
Rainfall in
Snow Depth Not available.
UV 8 out of 12
Pollen 9.60 out of 12
Air Quality Not available.
Flu Activity Not available.
METAR KGDV 011915Z AUTO 20011KT 10SM CLR 32/11 A2980 RMK AO1
Pressure 29.80 in
Visibility 10.0 miles
Clouds Clear
Dew Point 46 °F
Humidity 25%
Rainfall in
Snow Depth Not available.
UV 8 out of 12
Pollen 9.60 out of 12
Air Quality Not available.
Flu Activity Not available.
METAR KGDV 011915Z AUTO 20011KT 10SM CLR 32/11 A2980 RMK AO1

10-Day Weather Forecast

×

Almanac

Astronomy

Sep. 01, 2015 Rise Set
Actual Time
Civil Twilight
Nautical Twilight
Astronomical Twilight
Moon
Length of Visible Light
Length of Day
Tomorrow will be .
, % of the Moon is Illuminated

Today's Extremes

State Highs State Lows

Community

WunderPhotos

Upload Photos

1,851,597 photos uploaded!

WunderBlogs® & News

Nearby

Air Quality

  Air Quality AQ Index Pollutant
Not available.

Snow Depth

Station Depth Elevation

Earthquake Activity

City Distance Mag. Time & Date
Minimum magnitude displayed is 2.5.

Coastal Water Temperatures

Place Temperature

Stations

Nearby Weather Stations

Station Location Temp. Windchill Dew Point Humidity Wind Precip. Elev Updated Type